Baltimore/Washington International Thurgood Marshal Airport
KBWI : now visible

Airfield :











YOU CAN JOIN US ON...

 
LOGIN :

Register | Disclaimer

   EN    FR    IT 

 









Legend :    VFR   Marginal VFR   IFR   Intensive IFR   Very Intensive IFR
Visi :
Ceiling :
>= 8 km
>= 3000ft
5 to 8 km
1000 to 3000 ft
1500m to 5 km
500 to 1000 ft
800 to 1500m
200 to 500 ft
< 800m
< 200 ft
Symbols :   Thunderstorms  Fog  Heavy snow  Heavy precipitations  Wind > 20 kt






- Airport Elevation : 146 ft
- IATA code : BWI


KBWI - Baltimore/Washington International Thurgood Marshal

CURRENT METAR :
  • 280654Z 23006KT 10SM FEW006 BKN110 BKN140 BKN170 18/17 A2975 RMK AO2 RAB28E47 SLP073 P0000 T01830167

EXPIRED METARs :
  • 280554Z COR 23005KT 10SM FEW100 BKN140 BKN170 18/17 A2975 RMK AO2 SLP073 60017 T01830167 10217 20178 55006
  • 280454Z 22004KT 10SM FEW005 FEW060 BKN130 18/17 A2974 RMK AO2 SLP070 T01830172 402610178

TAF KBWI
Valid from the 28 at 06:00 until the 29 at 12:00 UTC


280539Z 2806/2912 23005KT P6SM FEW005 BKN100
FM281200 28007KT P6SM FEW050 BKN100
FM281500 29011G18KT P6SM SCT050 SCT120
FM282200 28007KT P6SM SCT150
FM290600 00000KT P6SM SKC
KZDC FIR / North America



MET'MAP, your aeronautical weather chart ! - Copyright ORBIFLY December 2007 - Disclaimer

ORBIFLY MET'MAP TEAM :

Programming & Development : Alexandra Zaïnal
Original concept : Baudouin d'Aumeries
Technical & hardware support : Manuel Goepfert
Assistance : Marc-Olivier Méhu

Contact : metmap@orbifly.com




SOURCES & CREDITS :

   NOAA       Earth
Advisory